Time;durP1;ratioP1;P1;durP2;ratioP2;P2;SDS_P1;SDS_P2;PMS_P1;PMS_P2;Temp;Humidity;BMP_temperature;BMP_pressure;BME280_temperature;BME280_humidity;BME280_pressure;Samples;Min_cycle;Max_cycle;Signal;HPM_P1;HPM_P2
2023/03/19 00:01:59;;;;;;;15.50;8.63;;;7.50;64.40;;;;;;5055959;28;20037;-69
2023/03/19 00:04:25;;;;;;;11.82;8.65;;;7.40;64.60;;;;;;5055455;28;20151;-69
2023/03/19 00:06:51;;;;;;;13.77;8.63;;;7.40;64.70;;;;;;5055525;28;20599;-69
2023/03/19 00:09:18;;;;;;;11.98;8.27;;;7.40;65.10;;;;;;5055176;28;20108;-69
2023/03/19 00:11:44;;;;;;;13.02;8.13;;;7.30;65.40;;;;;;5055678;28;20033;-69
2023/03/19 00:14:10;;;;;;;12.85;8.40;;;7.30;65.80;;;;;;5055778;28;20651;-69
2023/03/19 00:16:36;;;;;;;16.02;8.80;;;7.20;66.20;;;;;;5054971;28;20104;-69
2023/03/19 00:19:02;;;;;;;13.15;8.55;;;7.20;66.30;;;;;;5055671;28;20036;-69
2023/03/19 00:21:29;;;;;;;14.13;8.55;;;7.20;66.70;;;;;;5055279;28;20025;-69
2023/03/19 00:23:59;;;;;;;13.60;8.45;;;7.10;66.80;;;;;;5054054;28;20416;-69
2023/03/19 00:26:26;;;;;;;12.25;7.97;;;7.20;67.00;;;;;;5055074;28;20064;-69
2023/03/19 00:28:51;;;;;;;13.15;8.60;;;7.20;66.90;;;;;;5055442;28;20033;-69
2023/03/19 00:31:17;;;;;;;17.63;8.70;;;7.20;67.00;;;;;;5054624;28;20025;-69
2023/03/19 00:33:43;;;;;;;14.50;8.50;;;7.10;67.10;;;;;;5055085;28;20025;-69
2023/03/19 00:36:09;;;;;;;13.73;8.90;;;7.10;67.30;;;;;;5055287;28;20033;-69
2023/03/19 00:38:36;;;;;;;13.15;8.98;;;7.10;67.40;;;;;;5054882;28;20025;-69
2023/03/19 00:41:04;;;;;;;13.80;8.60;;;7.10;67.30;;;;;;5055157;28;20021;-69
2023/03/19 00:43:29;;;;;;;11.70;8.07;;;7.10;67.50;;;;;;5054657;28;20503;-69
2023/03/19 00:45:55;;;;;;;13.73;9.00;;;7.20;67.30;;;;;;5054561;28;20028;-68
2023/03/19 00:48:21;;;;;;;12.95;9.48;;;7.10;67.60;;;;;;5054831;28;20029;-69
2023/03/19 00:50:47;;;;;;;15.02;9.23;;;7.10;67.90;;;;;;5055005;28;20104;-69
2023/03/19 00:53:13;;;;;;;14.95;9.10;;;7.10;68.00;;;;;;5054596;28;20107;-69
2023/03/19 00:55:39;;;;;;;11.98;8.25;;;7.00;68.10;;;;;;5054696;28;20042;-69
2023/03/19 00:58:09;;;;;;;14.70;8.90;;;7.10;68.10;;;;;;5055191;28;20037;-68
2023/03/19 01:00:35;;;;;;;15.25;9.57;;;7.10;68.00;;;;;;5054044;28;20115;-69
2023/03/19 01:03:01;;;;;;;14.38;9.00;;;7.10;68.40;;;;;;5054809;28;20021;-68
2023/03/19 01:05:26;;;;;;;15.88;9.25;;;7.10;68.50;;;;;;5054072;28;20059;-68
2023/03/19 01:07:52;;;;;;;16.23;9.52;;;7.10;68.70;;;;;;5054927;28;20029;-68
2023/03/19 01:10:22;;;;;;;16.00;8.77;;;7.10;68.50;;;;;;5052704;28;20024;-68
2023/03/19 01:12:48;;;;;;;14.80;9.23;;;7.00;68.30;;;;;;5054743;28;20037;-69
2023/03/19 01:15:14;;;;;;;13.52;8.38;;;7.10;68.20;;;;;;5054505;28;20029;-69
2023/03/19 01:17:41;;;;;;;11.65;8.07;;;7.00;68.40;;;;;;5054661;28;20021;-68
2023/03/19 01:20:11;;;;;;;15.32;8.38;;;7.00;68.40;;;;;;5054411;28;20063;-70
2023/03/19 01:22:41;;;;;;;13.02;8.40;;;7.00;68.50;;;;;;5054006;28;20024;-68
2023/03/19 01:25:08;;;;;;;14.75;8.82;;;7.00;68.70;;;;;;5054141;28;20124;-69
2023/03/19 01:27:34;;;;;;;14.63;9.18;;;6.90;69.20;;;;;;5052767;28;20114;-69
2023/03/19 01:30:00;;;;;;;12.50;8.95;;;6.80;69.60;;;;;;5054163;28;20029;-68
2023/03/19 01:32:26;;;;;;;14.45;9.82;;;6.80;69.70;;;;;;5053765;28;20107;-69
2023/03/19 01:34:52;;;;;;;12.70;8.57;;;6.80;70.00;;;;;;5054375;28;20111;-69
2023/03/19 01:37:19;;;;;;;11.57;8.82;;;6.80;69.90;;;;;;5053548;28;20462;-69
2023/03/19 01:39:45;;;;;;;13.50;8.70;;;6.70;69.90;;;;;;5054020;28;20027;-69
2023/03/19 01:42:12;;;;;;;12.75;8.77;;;6.70;70.10;;;;;;5053825;28;20054;-68
2023/03/19 01:44:40;;;;;;;20.42;9.65;;;6.70;70.00;;;;;;5053363;28;20311;-69
2023/03/19 01:47:15;;;;;;;15.30;8.73;;;6.70;70.10;;;;;;5053878;28;20095;-68
2023/03/19 01:49:44;;;;;;;16.98;9.57;;;6.70;70.20;;;;;;5053497;28;20025;-69
2023/03/19 01:52:11;;;;;;;15.70;9.13;;;6.70;70.20;;;;;;5053840;28;20120;-68
2023/03/19 01:54:38;;;;;;;18.58;10.40;;;6.70;70.10;;;;;;5053357;28;20067;-68
2023/03/19 01:57:13;;;;;;;21.13;10.65;;;6.80;70.30;;;;;;5053554;28;20036;-68
2023/03/19 01:59:42;;;;;;;18.20;9.50;;;6.70;70.30;;;;;;5053271;28;20029;-68
2023/03/19 02:02:31;;;;;;;12.45;8.95;;;6.80;70.20;;;;;;5053673;28;20033;-67
2023/03/19 02:05:01;;;;;;;14.50;8.82;;;6.70;70.60;;;;;;5053452;28;20029;-69
2023/03/19 02:07:30;;;;;;;13.05;8.10;;;6.70;71.00;;;;;;5051841;28;20534;-68
2023/03/19 02:09:58;;;;;;;14.23;9.27;;;6.60;71.10;;;;;;5052997;28;20041;-68
2023/03/19 02:12:25;;;;;;;17.35;8.57;;;6.60;71.50;;;;;;5053079;28;20048;-69
2023/03/19 02:14:51;;;;;;;12.20;8.60;;;6.60;71.70;;;;;;5052981;28;20542;-68
2023/03/19 02:17:16;;;;;;;14.43;8.35;;;6.60;71.60;;;;;;5053450;28;20060;-68
2023/03/19 02:20:00;;;;;;;11.63;8.35;;;6.60;71.90;;;;;;5053001;28;20025;-68
2023/03/19 02:22:28;;;;;;;12.00;8.07;;;6.60;72.60;;;;;;5051896;28;20112;-69
2023/03/19 02:25:34;;;;;;;15.27;8.90;;;6.50;72.30;;;;;;5053272;28;20167;-68
2023/03/19 02:28:01;;;;;;;13.55;8.65;;;6.50;72.40;;;;;;5032299;28;20041;-68
2023/03/19 02:30:31;;;;;;;14.35;8.95;;;6.50;72.70;;;;;;5052941;28;20492;-69
2023/03/19 02:32:56;;;;;;;13.40;8.85;;;6.60;72.60;;;;;;5055537;28;20036;-69
2023/03/19 02:35:22;;;;;;;13.60;8.75;;;6.60;72.60;;;;;;5058821;28;20040;-70
2023/03/19 02:37:48;;;;;;;18.83;9.00;;;6.60;72.60;;;;;;5060344;28;20052;-68
2023/03/19 02:40:25;;;;;;;14.18;8.57;;;6.50;72.90;;;;;;5060276;28;20092;-68
2023/03/19 02:42:50;;;;;;;13.85;8.05;;;6.50;73.00;;;;;;5057432;28;20049;-68
2023/03/19 02:45:17;;;;;;;14.70;8.55;;;6.50;73.10;;;;;;5053031;28;20048;-68
2023/03/19 02:47:42;;;;;;;13.05;8.60;;;6.50;73.50;;;;;;5052538;28;20040;-67
2023/03/19 02:50:09;;;;;;;12.52;8.30;;;6.40;73.80;;;;;;5052814;28;20025;-69
2023/03/19 02:52:35;;;;;;;13.63;8.93;;;6.40;74.00;;;;;;5052417;28;20025;-69
2023/03/19 02:55:01;;;;;;;11.07;8.30;;;6.40;74.10;;;;;;5052877;28;20120;-68
2023/03/19 02:57:26;;;;;;;11.32;8.10;;;6.30;74.50;;;;;;5052155;28;20442;-68
2023/03/19 02:59:52;;;;;;;12.35;8.77;;;6.30;74.50;;;;;;5052484;28;20035;-69
2023/03/19 03:02:18;;;;;;;12.63;8.52;;;6.30;74.60;;;;;;5052810;28;20020;-69
2023/03/19 03:04:44;;;;;;;11.50;8.07;;;6.30;74.90;;;;;;5052287;28;20029;-69
2023/03/19 03:07:10;;;;;;;14.32;8.98;;;6.30;75.40;;;;;;5052535;28;20029;-68
2023/03/19 03:09:36;;;;;;;15.00;9.13;;;6.20;75.80;;;;;;5052090;28;20417;-68
2023/03/19 03:12:02;;;;;;;12.48;8.88;;;6.20;76.20;;;;;;5053071;28;20025;-68
2023/03/19 03:14:27;;;;;;;13.10;8.82;;;6.10;76.90;;;;;;5051848;28;20060;-69
2023/03/19 03:16:53;;;;;;;12.73;8.82;;;6.10;77.20;;;;;;5052595;28;20477;-69
2023/03/19 03:19:19;;;;;;;14.95;9.65;;;6.10;77.30;;;;;;5052330;28;20047;-69
2023/03/19 03:21:44;;;;;;;14.18;8.88;;;6.10;77.70;;;;;;5052126;28;20036;-69
2023/03/19 03:24:10;;;;;;;14.57;9.48;;;6.00;78.00;;;;;;5052519;28;20048;-69
2023/03/19 03:26:37;;;;;;;12.85;8.98;;;6.00;78.20;;;;;;5051935;28;20107;-69
2023/03/19 03:29:04;;;;;;;12.60;8.82;;;6.00;78.70;;;;;;5051827;28;20036;-69
2023/03/19 03:31:30;;;;;;;16.60;8.95;;;6.00;79.00;;;;;;5051534;28;20100;-69
2023/03/19 03:33:56;;;;;;;14.15;8.80;;;6.00;79.30;;;;;;5053656;28;20120;-68
2023/03/19 03:36:22;;;;;;;15.07;9.45;;;6.00;79.10;;;;;;5056738;28;20146;-69
2023/03/19 03:38:48;;;;;;;13.73;8.98;;;6.00;79.10;;;;;;5055859;28;20075;-69
2023/03/19 03:41:13;;;;;;;16.38;9.52;;;6.00;79.40;;;;;;5056040;28;20071;-69
2023/03/19 03:43:39;;;;;;;15.05;9.75;;;5.90;79.80;;;;;;5055353;28;20341;-69
2023/03/19 03:46:07;;;;;;;13.25;8.98;;;6.00;80.10;;;;;;5056081;28;20064;-69
2023/03/19 03:48:33;;;;;;;12.52;9.13;;;6.00;80.30;;;;;;5055785;28;20078;-69
2023/03/19 03:50:59;;;;;;;13.75;8.60;;;6.00;80.20;;;;;;5055831;28;20462;-69
2023/03/19 03:53:25;;;;;;;14.80;9.63;;;6.00;80.60;;;;;;5055910;28;20121;-69
2023/03/19 03:55:51;;;;;;;13.60;9.52;;;5.90;81.10;;;;;;5055478;28;20462;-68
2023/03/19 03:58:17;;;;;;;13.63;9.05;;;5.90;80.90;;;;;;5056210;28;20056;-68
2023/03/19 04:00:42;;;;;;;15.32;9.65;;;5.90;81.20;;;;;;5055232;28;20021;-67
2023/03/19 04:03:09;;;;;;;12.65;9.27;;;5.80;81.40;;;;;;5055772;28;20029;-68
2023/03/19 04:05:36;;;;;;;13.68;9.10;;;5.80;82.10;;;;;;5055173;28;20078;-69
2023/03/19 04:08:02;;;;;;;16.23;9.57;;;5.80;82.40;;;;;;5055833;28;20033;-69
2023/03/19 04:10:29;;;;;;;16.02;9.40;;;5.80;82.40;;;;;;5055268;28;20025;-66
2023/03/19 04:12:54;;;;;;;14.15;9.40;;;5.80;82.70;;;;;;5055835;28;20063;-69
2023/03/19 04:15:20;;;;;;;15.18;9.45;;;5.70;83.00;;;;;;5055798;28;20122;-69
2023/03/19 04:17:46;;;;;;;13.00;8.82;;;5.70;83.30;;;;;;5055453;28;20029;-70
2023/03/19 04:20:15;;;;;;;14.73;9.70;;;5.70;83.60;;;;;;5055513;28;20025;-69
2023/03/19 04:22:40;;;;;;;15.50;10.07;;;5.70;84.10;;;;;;5055014;28;20028;-67
2023/03/19 04:25:07;;;;;;;15.38;9.10;;;5.70;84.20;;;;;;5055228;28;20033;-68
2023/03/19 04:27:33;;;;;;;15.77;9.80;;;5.70;84.10;;;;;;5054771;28;20052;-68
2023/03/19 04:29:58;;;;;;;13.35;9.35;;;5.70;84.20;;;;;;5055187;28;20028;-68
2023/03/19 04:32:24;;;;;;;16.98;9.85;;;5.70;83.90;;;;;;5055075;28;20025;-68
2023/03/19 04:34:50;;;;;;;13.77;9.50;;;5.70;83.70;;;;;;5054884;28;20661;-69
2023/03/19 04:37:16;;;;;;;12.98;9.70;;;5.70;83.80;;;;;;5055301;28;20125;-68
2023/03/19 04:39:43;;;;;;;14.93;10.10;;;5.70;83.70;;;;;;5054765;28;20025;-69
2023/03/19 04:42:10;;;;;;;13.50;9.73;;;5.80;83.40;;;;;;5055089;28;20033;-69
2023/03/19 04:44:36;;;;;;;17.17;10.27;;;5.80;83.70;;;;;;5053799;28;20078;-69
2023/03/19 04:47:02;;;;;;;15.88;10.90;;;5.80;84.00;;;;;;5054714;28;20029;-69
2023/03/19 04:49:29;;;;;;;15.80;9.95;;;5.70;84.30;;;;;;5054654;28;20029;-69
2023/03/19 04:51:56;;;;;;;14.70;10.05;;;5.70;84.60;;;;;;5054382;28;20033;-69
2023/03/19 04:54:23;;;;;;;16.40;10.75;;;5.60;85.30;;;;;;5054704;28;20040;-69
2023/03/19 04:56:49;;;;;;;16.75;10.18;;;5.60;86.00;;;;;;5053913;28;20506;-69
2023/03/19 04:59:14;;;;;;;17.05;10.30;;;5.60;85.30;;;;;;5054439;28;20052;-69
2023/03/19 05:01:40;;;;;;;14.88;10.07;;;5.70;84.90;;;;;;5054253;28;20029;-68
2023/03/19 05:04:07;;;;;;;14.80;9.65;;;5.60;85.20;;;;;;5054827;28;20029;-68
2023/03/19 05:06:33;;;;;;;18.15;10.68;;;5.60;85.30;;;;;;5053945;28;20086;-69
2023/03/19 05:08:58;;;;;;;17.23;11.30;;;5.60;85.30;;;;;;5054568;28;20024;-68
2023/03/19 05:11:24;;;;;;;17.83;10.98;;;5.60;85.70;;;;;;5054297;28;20028;-69
2023/03/19 05:13:50;;;;;;;13.50;10.43;;;5.60;86.00;;;;;;5054129;28;20029;-69
2023/03/19 05:16:16;;;;;;;16.40;10.52;;;5.50;86.50;;;;;;5054569;28;20390;-68
2023/03/19 05:18:42;;;;;;;13.43;9.85;;;5.50;86.10;;;;;;5053782;28;20029;-70
2023/03/19 05:21:10;;;;;;;13.43;9.93;;;5.50;86.60;;;;;;5054472;28;20079;-68
2023/03/19 05:23:36;;;;;;;13.98;10.48;;;5.40;87.10;;;;;;5053994;28;20107;-69
2023/03/19 05:26:02;;;;;;;16.75;11.00;;;5.30;87.50;;;;;;5054366;28;20451;-69
2023/03/19 05:28:28;;;;;;;15.55;10.65;;;5.30;88.30;;;;;;5054474;28;20044;-69
2023/03/19 05:30:54;;;;;;;15.18;10.30;;;5.30;88.50;;;;;;5053497;28;20112;-68
2023/03/19 05:33:21;;;;;;;17.95;10.45;;;5.30;88.60;;;;;;5054179;28;20025;-69
2023/03/19 05:35:47;;;;;;;18.48;11.00;;;5.30;88.20;;;;;;5053555;28;20075;-69
2023/03/19 05:38:14;;;;;;;16.55;10.90;;;5.30;88.40;;;;;;5054006;28;20043;-69
2023/03/19 05:40:43;;;;;;;18.77;10.88;;;5.30;89.10;;;;;;5053032;28;20537;-69
2023/03/19 05:43:09;;;;;;;15.60;11.18;;;5.30;88.80;;;;;;5053592;28;20049;-69
2023/03/19 05:45:36;;;;;;;16.08;11.30;;;5.30;89.10;;;;;;5053252;28;20120;-69
2023/03/19 05:48:05;;;;;;;17.70;11.02;;;5.30;89.10;;;;;;5053771;28;20037;-69
2023/03/19 05:50:32;;;;;;;14.68;10.55;;;5.30;88.90;;;;;;5053474;28;20465;-68
2023/03/19 05:52:58;;;;;;;17.17;11.82;;;5.30;89.00;;;;;;5053103;28;20473;-68
2023/03/19 05:55:24;;;;;;;14.25;10.60;;;5.40;88.90;;;;;;5053719;28;20041;-68
2023/03/19 05:57:50;;;;;;;18.40;12.90;;;5.40;88.80;;;;;;5053220;28;20453;-69
2023/03/19 06:00:16;;;;;;;14.63;11.10;;;5.50;88.70;;;;;;5053670;28;20031;-69
2023/03/19 06:02:42;;;;;;;19.67;11.15;;;5.40;88.10;;;;;;5053083;28;20469;-70
2023/03/19 06:05:09;;;;;;;14.07;10.98;;;5.50;88.50;;;;;;5053570;28;20052;-69
2023/03/19 06:07:35;;;;;;;17.05;10.93;;;5.50;88.10;;;;;;5053503;28;20033;-69
2023/03/19 06:10:01;;;;;;;16.08;11.80;;;5.60;87.90;;;;;;5053285;28;20031;-69
2023/03/19 06:12:27;;;;;;;20.92;11.45;;;5.60;87.90;;;;;;5053131;28;20028;-69
2023/03/19 06:14:53;;;;;;;16.45;11.18;;;5.60;87.30;;;;;;5052804;28;20098;-69
2023/03/19 06:17:18;;;;;;;16.25;11.40;;;5.70;87.60;;;;;;5053282;28;20024;-69
2023/03/19 06:19:44;;;;;;;19.35;11.27;;;5.70;87.10;;;;;;5052664;28;20056;-68
2023/03/19 06:22:10;;;;;;;15.70;11.25;;;5.80;86.40;;;;;;5053603;28;20043;-68
2023/03/19 06:24:35;;;;;;;18.27;11.82;;;5.80;86.30;;;;;;5053306;28;20382;-69
2023/03/19 06:27:01;;;;;;;16.30;11.30;;;5.80;86.10;;;;;;5052546;28;20120;-68
2023/03/19 06:29:27;;;;;;;17.27;11.80;;;5.90;85.80;;;;;;5052879;28;20047;-69
2023/03/19 06:31:53;;;;;;;18.52;11.68;;;5.90;85.90;;;;;;5052742;28;20025;-69
2023/03/19 06:34:18;;;;;;;16.52;11.85;;;6.00;85.40;;;;;;5052998;28;20112;-69
2023/03/19 06:36:44;;;;;;;16.42;11.85;;;6.00;85.20;;;;;;5052509;28;20028;-69
2023/03/19 06:39:10;;;;;;;18.83;11.77;;;6.10;84.90;;;;;;5053169;28;20032;-69
2023/03/19 06:41:36;;;;;;;16.38;11.57;;;6.20;84.30;;;;;;5053073;28;20470;-69
2023/03/19 06:44:02;;;;;;;20.67;12.05;;;6.20;83.90;;;;;;5052636;28;20057;-68
2023/03/19 06:46:28;;;;;;;16.55;11.23;;;6.30;83.70;;;;;;5052882;28;20039;-68
2023/03/19 06:48:54;;;;;;;22.20;11.57;;;6.30;83.40;;;;;;5052017;28;20025;-68
2023/03/19 06:51:20;;;;;;;16.33;12.25;;;6.40;82.90;;;;;;5052823;28;20025;-68
2023/03/19 06:53:46;;;;;;;19.70;12.38;;;6.60;82.40;;;;;;5052325;28;20043;-68
2023/03/19 06:56:11;;;;;;;17.55;11.65;;;6.70;81.60;;;;;;5052743;28;20112;-69
2023/03/19 06:58:37;;;;;;;17.58;11.98;;;6.80;81.40;;;;;;5052724;28;20380;-68
2023/03/19 07:01:03;;;;;;;18.05;11.63;;;6.90;80.50;;;;;;5052206;28;20055;-68
2023/03/19 07:03:29;;;;;;;16.42;12.13;;;7.00;80.20;;;;;;5052689;28;20031;-68
2023/03/19 07:05:55;;;;;;;16.30;11.68;;;7.00;80.20;;;;;;5052102;28;20035;-68
2023/03/19 07:08:21;;;;;;;17.38;11.32;;;7.10;79.30;;;;;;5052382;28;20473;-68
2023/03/19 07:10:46;;;;;;;17.63;12.13;;;7.20;79.70;;;;;;5052146;28;20029;-68
2023/03/19 07:13:12;;;;;;;19.10;11.95;;;7.20;79.60;;;;;;5052656;28;20029;-68
2023/03/19 07:15:37;;;;;;;17.05;12.00;;;7.30;79.30;;;;;;5052303;28;20065;-69
2023/03/19 07:18:03;;;;;;;15.38;11.50;;;7.40;78.30;;;;;;5052074;28;20025;-69
2023/03/19 07:20:29;;;;;;;17.77;11.60;;;7.60;78.20;;;;;;5052628;28;20521;-69
2023/03/19 07:22:55;;;;;;;14.65;10.85;;;7.90;78.00;;;;;;5051978;28;20025;-68
2023/03/19 07:25:21;;;;;;;15.15;11.27;;;8.20;76.30;;;;;;5052476;28;20068;-68
2023/03/19 07:27:47;;;;;;;15.98;11.80;;;8.50;75.00;;;;;;5051941;28;20127;-69
2023/03/19 07:30:14;;;;;;;16.45;11.63;;;9.00;72.20;;;;;;5052608;28;20521;-67
2023/03/19 07:32:40;;;;;;;14.02;10.40;;;9.40;70.10;;;;;;5052231;28;20022;-68
2023/03/19 07:35:07;;;;;;;14.57;10.63;;;9.70;69.20;;;;;;5052185;28;20036;-69
2023/03/19 07:37:32;;;;;;;14.10;10.80;;;10.20;66.40;;;;;;5051143;28;20029;-69
2023/03/19 07:39:58;;;;;;;14.25;10.48;;;10.40;64.70;;;;;;5051873;28;20472;-68
2023/03/19 07:42:24;;;;;;;14.60;10.68;;;10.80;64.00;;;;;;5052180;28;20045;-68
2023/03/19 07:44:50;;;;;;;15.60;10.35;;;11.10;62.50;;;;;;5051637;28;20035;-68
2023/03/19 07:47:15;;;;;;;14.48;10.57;;;11.40;60.90;;;;;;5050175;28;20033;-68
2023/03/19 07:49:42;;;;;;;16.08;10.10;;;11.90;60.10;;;;;;5052301;28;20025;-68
2023/03/19 07:52:08;;;;;;;11.20;9.60;;;12.50;58.10;;;;;;5050550;28;20036;-68
2023/03/19 07:54:33;;;;;;;15.50;10.48;;;13.00;56.20;;;;;;5051857;28;20385;-68
2023/03/19 07:57:00;;;;;;;13.35;9.55;;;13.60;54.40;;;;;;5050624;28;20128;-68
2023/03/19 07:59:26;;;;;;;12.43;10.10;;;13.90;53.10;;;;;;5051952;28;20035;-67
2023/03/19 08:01:51;;;;;;;13.18;10.07;;;14.10;52.60;;;;;;5051781;28;20025;-68
2023/03/19 08:04:17;;;;;;;12.60;8.55;;;14.30;52.10;;;;;;5051598;28;20036;-68
2023/03/19 08:06:43;;;;;;;11.68;9.07;;;15.10;50.70;;;;;;5052028;28;20033;-68
2023/03/19 08:09:08;;;;;;;11.68;10.25;;;15.70;48.80;;;;;;5051719;28;20064;-68
2023/03/19 08:11:34;;;;;;;11.90;9.70;;;16.20;47.60;;;;;;5051604;28;20481;-68
2023/03/19 08:14:00;;;;;;;11.70;9.38;;;16.20;46.80;;;;;;5051320;28;20025;-68
2023/03/19 08:16:26;;;;;;;14.52;9.85;;;16.40;46.50;;;;;;5052011;28;20090;-68
2023/03/19 08:18:52;;;;;;;13.30;9.55;;;16.50;46.20;;;;;;5051460;28;20055;-68
2023/03/19 08:21:17;;;;;;;15.52;10.02;;;17.00;45.60;;;;;;5053976;28;20517;-68
2023/03/19 08:23:43;;;;;;;11.25;9.63;;;17.50;44.50;;;;;;5055311;28;20057;-68
2023/03/19 08:26:09;;;;;;;12.52;10.13;;;17.90;42.90;;;;;;5055457;28;20060;-68
2023/03/19 08:28:36;;;;;;;11.43;10.23;;;17.90;42.60;;;;;;5057243;28;20063;-68
2023/03/19 08:31:09;;;;;;;13.73;10.13;;;17.50;43.20;;;;;;5056943;28;20517;-68
2023/03/19 08:33:36;;;;;;;10.60;8.98;;;17.40;43.30;;;;;;5057078;28;20055;-67
2023/03/19 08:36:10;;;;;;;11.98;10.15;;;17.30;43.50;;;;;;5055305;28;20032;-69
2023/03/19 08:38:36;;;;;;;13.30;10.18;;;17.10;44.30;;;;;;5054950;28;20460;-68
2023/03/19 08:41:03;;;;;;;12.10;10.65;;;16.80;44.00;;;;;;5054862;28;20025;-68
2023/03/19 08:43:33;;;;;;;13.93;11.10;;;16.50;44.40;;;;;;5055148;28;20079;-68
2023/03/19 08:45:59;;;;;;;13.37;10.40;;;16.20;45.30;;;;;;5054470;28;20038;-68
2023/03/19 08:48:26;;;;;;;16.98;10.38;;;16.00;45.70;;;;;;5055009;28;20312;-68
2023/03/19 08:50:54;;;;;;;13.38;10.73;;;15.80;46.50;;;;;;5054519;28;20025;-69
2023/03/19 08:53:20;;;;;;;16.10;10.98;;;15.40;47.00;;;;;;5054899;28;20023;-68
2023/03/19 08:55:59;;;;;;;16.40;10.68;;;15.20;48.00;;;;;;5054891;28;20107;-68
2023/03/19 08:58:27;;;;;;;13.95;11.02;;;15.00;48.10;;;;;;5054740;28;20025;-69
2023/03/19 09:00:53;;;;;;;12.85;9.98;;;15.00;48.60;;;;;;5054234;28;20090;-69
2023/03/19 09:03:20;;;;;;;13.95;10.68;;;14.80;48.80;;;;;;5055010;28;20458;-68
2023/03/19 09:05:46;;;;;;;12.57;10.52;;;14.70;49.40;;;;;;5054427;28;20029;-69
2023/03/19 09:08:12;;;;;;;13.95;10.77;;;14.80;50.00;;;;;;5054049;28;20098;-68
2023/03/19 09:10:38;;;;;;;15.27;11.32;;;14.90;49.90;;;;;;5054354;28;20107;-68
2023/03/19 09:13:04;;;;;;;16.75;10.68;;;14.80;49.30;;;;;;5053789;28;20466;-67
2023/03/19 09:15:30;;;;;;;16.65;11.60;;;14.70;49.70;;;;;;5054546;28;20037;-68
2023/03/19 09:17:56;;;;;;;14.38;11.15;;;14.50;49.30;;;;;;5053898;28;20581;-68
2023/03/19 09:20:22;;;;;;;15.45;10.70;;;14.30;49.80;;;;;;5054364;28;20107;-68
2023/03/19 09:22:47;;;;;;;16.05;11.52;;;14.30;50.50;;;;;;5054076;28;20059;-69
2023/03/19 09:25:13;;;;;;;14.18;11.05;;;14.30;50.50;;;;;;5053431;28;20068;-68
2023/03/19 09:27:39;;;;;;;15.65;11.38;;;14.30;50.50;;;;;;5054424;28;20025;-68
2023/03/19 09:30:08;;;;;;;15.52;10.88;;;14.20;50.90;;;;;;5053956;28;20029;-68
2023/03/19 09:32:34;;;;;;;14.77;11.00;;;14.30;50.70;;;;;;5053732;28;20027;-68
2023/03/19 09:35:00;;;;;;;14.57;10.80;;;14.20;50.30;;;;;;5053381;28;20029;-68
2023/03/19 09:37:25;;;;;;;17.40;11.50;;;14.10;50.70;;;;;;5053878;28;20064;-68
2023/03/19 09:39:51;;;;;;;14.27;10.18;;;14.20;51.00;;;;;;5054128;28;20036;-68
2023/03/19 09:42:46;;;;;;;14.15;11.15;;;14.40;50.30;;;;;;5053983;28;20060;-68
2023/03/19 09:45:15;;;;;;;15.68;10.93;;;14.20;50.20;;;;;;5053213;28;20217;-68
2023/03/19 09:47:42;;;;;;;15.48;11.52;;;14.10;50.50;;;;;;5054405;28;20036;-68
2023/03/19 09:50:23;;;;;;;12.95;10.85;;;14.20;50.60;;;;;;5053456;28;20432;-69
2023/03/19 09:53:21;;;;;;;14.93;11.68;;;14.20;50.30;;;;;;5053351;28;20028;-68
2023/03/19 09:55:51;;;;;;;16.17;11.13;;;14.20;50.40;;;;;;5053453;28;20499;-68
2023/03/19 09:58:21;;;;;;;12.70;10.50;;;14.10;51.40;;;;;;5053308;28;20029;-69
2023/03/19 10:00:50;;;;;;;14.23;10.95;;;14.30;51.10;;;;;;5053759;28;20025;-68
2023/03/19 10:03:34;;;;;;;17.23;10.98;;;14.50;51.10;;;;;;5053099;28;20056;-68
2023/03/19 10:06:07;;;;;;;14.23;11.52;;;14.60;50.50;;;;;;5053112;28;20029;-68
2023/03/19 10:08:38;;;;;;;16.08;11.25;;;14.70;49.90;;;;;;5053474;28;20055;-68
2023/03/19 10:11:07;;;;;;;15.50;11.10;;;14.80;49.70;;;;;;5052905;28;20029;-68
2023/03/19 10:14:00;;;;;;;14.68;10.93;;;14.80;49.70;;;;;;5053247;28;20071;-68
2023/03/19 10:16:27;;;;;;;13.98;10.05;;;15.00;49.60;;;;;;5053564;28;20037;-69
2023/03/19 10:18:58;;;;;;;15.60;10.85;;;15.10;49.90;;;;;;5053188;28;20029;-69
2023/03/19 10:21:41;;;;;;;14.10;11.55;;;15.30;49.50;;;;;;5053720;28;20021;-68
2023/03/19 10:24:21;;;;;;;13.82;10.60;;;15.30;48.50;;;;;;5052678;28;20032;-69
2023/03/19 10:26:48;;;;;;;14.05;10.88;;;15.50;48.80;;;;;;5053023;28;20033;-69
2023/03/19 10:29:18;;;;;;;15.30;11.68;;;15.60;49.20;;;;;;5052448;28;20135;-69
2023/03/19 10:32:07;;;;;;;15.48;10.52;;;15.50;47.70;;;;;;5053008;28;20104;-69
2023/03/19 10:34:40;;;;;;;14.15;10.43;;;15.60;48.40;;;;;;5053110;28;20029;-69
2023/03/19 10:37:11;;;;;;;15.40;10.80;;;15.60;48.40;;;;;;5052697;28;20020;-68
2023/03/19 10:39:40;;;;;;;20.20;11.07;;;15.60;47.60;;;;;;5053015;28;20029;-68
2023/03/19 10:42:44;;;;;;;17.05;10.98;;;15.80;47.60;;;;;;5050933;28;20048;-68
2023/03/19 10:45:31;;;;;;;15.65;11.55;;;15.80;47.10;;;;;;5052261;28;20066;-68
2023/03/19 10:47:59;;;;;;;13.32;9.93;;;15.80;47.50;;;;;;5052384;28;20036;-70
2023/03/19 10:50:30;;;;;;;15.90;10.98;;;15.90;47.70;;;;;;5052789;28;20120;-68
2023/03/19 10:53:24;;;;;;;14.75;10.63;;;15.90;47.20;;;;;;5052722;28;20033;-67
2023/03/19 10:55:54;;;;;;;12.20;10.18;;;15.90;47.50;;;;;;5052798;28;20033;-68
2023/03/19 10:58:24;;;;;;;15.55;11.25;;;15.90;47.50;;;;;;5052165;28;20025;-68
2023/03/19 11:01:01;;;;;;;14.30;11.02;;;15.60;47.20;;;;;;5052600;28;20350;-68
2023/03/19 11:03:37;;;;;;;13.88;10.85;;;15.50;47.90;;;;;;5052401;28;20358;-69
2023/03/19 11:06:06;;;;;;;14.50;10.77;;;15.30;48.20;;;;;;5052088;28;20424;-69
2023/03/19 11:08:37;;;;;;;15.13;10.88;;;15.20;48.30;;;;;;5052595;28;20029;-69
2023/03/19 11:11:03;;;;;;;;;;;15.10;48.70;;;;;;5052249;28;20043;-69
2023/03/19 11:13:32;;;;;;;14.30;10.50;;;15.10;49.60;;;;;;5052507;28;19983;-69
2023/03/19 11:15:59;;;;;;;13.93;11.18;;;15.10;49.20;;;;;;5052529;28;20059;-69
2023/03/19 11:18:35;;;;;;;13.30;11.07;;;15.10;49.40;;;;;;5052515;28;20021;-69
2023/03/19 11:21:27;;;;;;;15.20;11.38;;;15.10;49.30;;;;;;5052244;28;20112;-69
2023/03/19 11:24:00;;;;;;;14.25;11.38;;;15.10;49.20;;;;;;5052550;28;20064;-69
2023/03/19 11:26:27;;;;;;;14.90;11.15;;;15.10;49.00;;;;;;5052091;28;20116;-69
2023/03/19 11:28:56;;;;;;;15.75;11.60;;;15.00;48.70;;;;;;5052200;28;20036;-69
2023/03/19 11:31:40;;;;;;;16.15;11.75;;;14.90;49.10;;;;;;5051859;28;20025;-69
2023/03/19 11:34:28;;;;;;;14.73;10.95;;;14.90;49.30;;;;;;5050787;28;20025;-69
2023/03/19 11:37:27;;;;;;;16.80;11.45;;;14.90;49.40;;;;;;5052233;28;20029;-68
2023/03/19 11:39:53;;;;;;;16.73;11.63;;;14.80;49.80;;;;;;5052440;28;20029;-68
2023/03/19 11:42:46;;;;;;;16.63;12.27;;;14.80;50.00;;;;;;5051494;28;20489;-68
2023/03/19 11:45:39;;;;;;;15.70;11.55;;;14.90;50.20;;;;;;5051723;28;20029;-68
2023/03/19 11:48:16;;;;;;;16.77;12.55;;;15.00;49.70;;;;;;5051416;28;20033;-69
2023/03/19 11:50:50;;;;;;;18.65;11.50;;;14.90;49.60;;;;;;5052027;28;20147;-68
2023/03/19 11:53:30;;;;;;;13.98;10.93;;;15.00;49.80;;;;;;5051654;28;20029;-68
2023/03/19 11:56:16;;;;;;;16.60;11.70;;;15.00;49.20;;;;;;5055467;28;20041;-68
2023/03/19 11:59:12;;;;;;;16.88;12.18;;;14.90;49.60;;;;;;5055936;28;20033;-68
2023/03/19 12:02:33;;;;;;;16.60;10.38;;;15.00;49.70;;;;;;5055589;28;20503;-69
2023/03/19 12:05:15;;;;;;;17.83;11.73;;;15.00;49.40;;;;;;5033117;28;20040;-68
2023/03/19 12:07:50;;;;;;;14.75;10.90;;;15.00;49.20;;;;;;5033384;28;20107;-69
2023/03/19 12:10:40;;;;;;;13.90;10.75;;;15.00;49.40;;;;;;5046564;28;20122;-69
2023/03/19 12:13:30;;;;;;;15.27;10.20;;;15.00;49.00;;;;;;5055112;28;20036;-69
2023/03/19 12:16:19;;;;;;;17.70;11.80;;;15.10;49.00;;;;;;5055398;28;20739;-69
2023/03/19 12:19:12;;;;;;;15.57;11.27;;;15.00;49.00;;;;;;5055191;28;20025;-69
2023/03/19 12:22:18;;;;;;;14.00;10.68;;;14.90;48.80;;;;;;5055494;28;20035;-67
2023/03/19 12:24:52;;;;;;;15.32;10.85;;;14.90;49.00;;;;;;5055501;28;20039;-69
2023/03/19 12:27:18;;;;;;;13.60;9.93;;;14.80;49.30;;;;;;5054789;28;20171;-69
2023/03/19 12:30:01;;;;;;;18.92;11.57;;;14.80;49.40;;;;;;5055218;28;20143;-69
2023/03/19 12:32:42;;;;;;;15.75;10.27;;;14.80;49.50;;;;;;5054759;28;20071;-68
2023/03/19 12:35:17;;;;;;;14.25;10.77;;;14.90;49.50;;;;;;5054309;28;20466;-69
2023/03/19 12:37:57;;;;;;;15.98;9.85;;;14.80;49.10;;;;;;5055040;28;20037;-68
2023/03/19 12:40:36;;;;;;;13.13;10.35;;;14.90;49.70;;;;;;5054726;28;20117;-68
2023/03/19 12:43:06;;;;;;;14.98;10.43;;;14.90;49.20;;;;;;5054799;28;20080;-69
2023/03/19 12:45:37;;;;;;;13.98;10.13;;;14.80;49.20;;;;;;5054695;28;20064;-68
2023/03/19 12:48:27;;;;;;;12.45;9.43;;;14.70;49.50;;;;;;5055102;28;20037;-68
2023/03/19 12:50:58;;;;;;;13.52;10.18;;;14.70;49.80;;;;;;5055128;28;20032;-69